sensor_id;sensor_type;location;lat;lon;timestamp;pressure;altitude;pressure_sealevel;temperature;humidity
8641;BME280;4358;42.100;25.222;2023-02-13T00:00:10;102071.47;;;4.60;94.48
8641;BME280;4358;42.100;25.222;2023-02-13T00:02:38;102071.66;;;4.30;96.75
8641;BME280;4358;42.100;25.222;2023-02-13T00:05:05;102084.09;;;4.06;98.37
8641;BME280;4358;42.100;25.222;2023-02-13T00:07:32;102085.84;;;4.06;99.11
8641;BME280;4358;42.100;25.222;2023-02-13T00:09:59;102086.72;;;4.06;99.82
8641;BME280;4358;42.100;25.222;2023-02-13T00:12:26;102081.53;;;3.97;100.00
8641;BME280;4358;42.100;25.222;2023-02-13T00:14:53;102082.41;;;3.93;100.00
8641;BME280;4358;42.100;25.222;2023-02-13T00:17:21;102085.91;;;3.97;100.00
8641;BME280;4358;42.100;25.222;2023-02-13T00:19:48;102096.44;;;3.91;100.00
8641;BME280;4358;42.100;25.222;2023-02-13T00:22:15;102093.84;;;3.86;100.00
8641;BME280;4358;42.100;25.222;2023-02-13T00:24:42;102100.91;;;3.69;100.00
8641;BME280;4358;42.100;25.222;2023-02-13T00:27:09;102096.53;;;3.68;100.00
8641;BME280;4358;42.100;25.222;2023-02-13T00:29:36;102095.63;;;3.72;100.00
8641;BME280;4358;42.100;25.222;2023-02-13T00:32:03;102101.81;;;3.62;100.00
8641;BME280;4358;42.100;25.222;2023-02-13T00:34:31;102103.59;;;3.60;100.00
8641;BME280;4358;42.100;25.222;2023-02-13T00:36:58;102103.56;;;3.57;100.00
8641;BME280;4358;42.100;25.222;2023-02-13T00:39:25;102100.13;;;3.49;100.00
8641;BME280;4358;42.100;25.222;2023-02-13T00:41:52;102106.19;;;3.57;100.00
8641;BME280;4358;42.100;25.222;2023-02-13T00:44:18;102103.56;;;3.57;100.00
8641;BME280;4358;42.100;25.222;2023-02-13T00:46:45;102101.00;;;3.41;100.00
8641;BME280;4358;42.100;25.222;2023-02-13T00:49:13;102100.16;;;3.27;100.00
8641;BME280;4358;42.100;25.222;2023-02-13T00:51:41;102097.56;;;3.24;100.00
8641;BME280;4358;42.100;25.222;2023-02-13T00:54:08;102105.41;;;3.26;100.00
8641;BME280;4358;42.100;25.222;2023-02-13T00:56:34;102109.78;;;3.25;100.00
8641;BME280;4358;42.100;25.222;2023-02-13T00:59:01;102107.19;;;3.18;100.00
8641;BME280;4358;42.100;25.222;2023-02-13T01:01:28;102102.78;;;3.20;100.00
8641;BME280;4358;42.100;25.222;2023-02-13T01:03:55;102105.41;;;3.32;100.00
8641;BME280;4358;42.100;25.222;2023-02-13T01:06:21;102110.66;;;3.32;100.00
8641;BME280;4358;42.100;25.222;2023-02-13T01:08:49;102096.66;;;3.37;100.00
8641;BME280;4358;42.100;25.222;2023-02-13T01:11:16;102107.13;;;3.47;100.00
8641;BME280;4358;42.100;25.222;2023-02-13T01:13:43;102111.50;;;3.51;100.00
8641;BME280;4358;42.100;25.222;2023-02-13T01:16:10;102104.50;;;3.36;100.00
8641;BME280;4358;42.100;25.222;2023-02-13T01:18:38;102101.91;;;3.31;100.00
8641;BME280;4358;42.100;25.222;2023-02-13T01:21:07;102102.81;;;3.24;100.00
8641;BME280;4358;42.100;25.222;2023-02-13T01:23:35;102103.66;;;3.26;100.00
8641;BME280;4358;42.100;25.222;2023-02-13T01:26:05;102097.56;;;3.12;100.00
8641;BME280;4358;42.100;25.222;2023-02-13T01:28:33;102097.56;;;3.09;100.00
8641;BME280;4358;42.100;25.222;2023-02-13T01:31:00;102089.72;;;3.03;100.00
8641;BME280;4358;42.100;25.222;2023-02-13T01:33:27;102095.84;;;2.99;100.00
8641;BME280;4358;42.100;25.222;2023-02-13T01:35:54;102096.72;;;2.98;100.00
8641;BME280;4358;42.100;25.222;2023-02-13T01:38:21;102104.59;;;2.98;100.00
8641;BME280;4358;42.100;25.222;2023-02-13T01:40:49;102108.06;;;3.00;100.00
8641;BME280;4358;42.100;25.222;2023-02-13T01:43:19;102104.59;;;2.95;100.00
8641;BME280;4358;42.100;25.222;2023-02-13T01:45:51;102111.59;;;2.90;100.00
8641;BME280;4358;42.100;25.222;2023-02-13T01:48:22;102110.69;;;2.88;100.00
8641;BME280;4358;42.100;25.222;2023-02-13T01:50:52;102111.59;;;2.87;100.00
8641;BME280;4358;42.100;25.222;2023-02-13T01:53:25;102116.84;;;2.81;100.00
8641;BME280;4358;42.100;25.222;2023-02-13T01:55:56;102102.88;;;2.67;100.00
8641;BME280;4358;42.100;25.222;2023-02-13T01:58:29;102086.25;;;2.66;100.00
8641;BME280;4358;42.100;25.222;2023-02-13T02:00:58;102110.72;;;2.76;100.00
8641;BME280;4358;42.100;25.222;2023-02-13T02:03:30;102113.31;;;2.73;100.00
8641;BME280;4358;42.100;25.222;2023-02-13T02:05:58;102113.25;;;2.12;100.00
8641;BME280;4358;42.100;25.222;2023-02-13T02:08:27;102121.81;;;1.68;100.00
8641;BME280;4358;42.100;25.222;2023-02-13T02:10:57;102124.47;;;1.75;100.00
8641;BME280;4358;42.100;25.222;2023-02-13T02:13:27;102128.00;;;1.86;100.00
8641;BME280;4358;42.100;25.222;2023-02-13T02:15:54;102134.09;;;1.82;100.00
8641;BME280;4358;42.100;25.222;2023-02-13T02:18:22;102137.63;;;1.87;100.00
8641;BME280;4358;42.100;25.222;2023-02-13T02:21:14;102130.66;;;1.92;100.00
8641;BME280;4358;42.100;25.222;2023-02-13T02:27:16;102147.22;;;1.91;100.00
8641;BME280;4358;42.100;25.222;2023-02-13T02:30:25;102144.63;;;1.88;100.00
8641;BME280;4358;42.100;25.222;2023-02-13T02:33:10;102151.56;;;1.86;100.00
8641;BME280;4358;42.100;25.222;2023-02-13T02:35:45;102151.56;;;1.89;100.00
8641;BME280;4358;42.100;25.222;2023-02-13T02:38:25;102149.84;;;1.88;100.00
8641;BME280;4358;42.100;25.222;2023-02-13T02:41:01;102153.31;;;1.90;100.00
8641;BME280;4358;42.100;25.222;2023-02-13T02:43:46;102153.31;;;1.87;100.00
8641;BME280;4358;42.100;25.222;2023-02-13T02:46:23;102152.41;;;1.77;100.00
8641;BME280;4358;42.100;25.222;2023-02-13T02:48:56;102158.53;;;1.78;100.00
8641;BME280;4358;42.100;25.222;2023-02-13T02:51:52;102155.00;;;1.71;100.00
8641;BME280;4358;42.100;25.222;2023-02-13T02:54:23;102158.50;;;1.75;100.00
8641;BME280;4358;42.100;25.222;2023-02-13T02:57:14;102163.78;;;1.78;100.00
8641;BME280;4358;42.100;25.222;2023-02-13T02:59:43;102169.88;;;1.80;100.00
8641;BME280;4358;42.100;25.222;2023-02-13T03:02:29;102168.97;;;1.75;100.00
8641;BME280;4358;42.100;25.222;2023-02-13T03:05:20;102175.91;;;1.68;100.00
8641;BME280;4358;42.100;25.222;2023-02-13T03:08:05;102168.88;;;1.59;100.00
8641;BME280;4358;42.100;25.222;2023-02-13T03:10:34;102179.38;;;1.59;100.00
8641;BME280;4358;42.100;25.222;2023-02-13T03:13:33;102175.00;;;1.60;100.00
8641;BME280;4358;42.100;25.222;2023-02-13T03:16:04;102161.91;;;1.60;100.00
8641;BME280;4358;42.100;25.222;2023-02-13T03:18:51;102166.25;;;1.58;100.00
8641;BME280;4358;42.100;25.222;2023-02-13T03:21:45;102167.97;;;1.53;100.00
8641;BME280;4358;42.100;25.222;2023-02-13T03:24:37;102177.59;;;1.58;100.00
8641;BME280;4358;42.100;25.222;2023-02-13T03:27:13;102178.47;;;1.54;100.00
8641;BME280;4358;42.100;25.222;2023-02-13T03:30:11;102166.22;;;1.49;100.00
8641;BME280;4358;42.100;25.222;2023-02-13T03:32:44;102174.09;;;1.53;100.00
8641;BME280;4358;42.100;25.222;2023-02-13T03:35:24;102154.78;;;1.36;100.00
8641;BME280;4358;42.100;25.222;2023-02-13T03:38:19;102179.28;;;1.47;100.00
8641;BME280;4358;42.100;25.222;2023-02-13T03:40:50;102174.88;;;1.36;100.00
8641;BME280;4358;42.100;25.222;2023-02-13T03:43:38;102170.47;;;1.30;100.00
8641;BME280;4358;42.100;25.222;2023-02-13T03:46:09;102174.75;;;1.23;100.00
8641;BME280;4358;42.100;25.222;2023-02-13T03:48:37;102177.34;;;1.19;100.00
8641;BME280;4358;42.100;25.222;2023-02-13T03:51:26;102177.31;;;1.14;100.00
8641;BME280;4358;42.100;25.222;2023-02-13T03:53:58;102174.69;;;1.10;100.00
8641;BME280;4358;42.100;25.222;2023-02-13T03:56:26;102177.28;;;1.08;100.00
8641;BME280;4358;42.100;25.222;2023-02-13T03:59:18;102173.81;;;1.15;100.00
8641;BME280;4358;42.100;25.222;2023-02-13T04:01:56;102178.13;;;1.07;100.00
8641;BME280;4358;42.100;25.222;2023-02-13T04:04:29;102175.53;;;1.10;100.00
8641;BME280;4358;42.100;25.222;2023-02-13T04:07:01;102183.34;;;1.07;100.00
8641;BME280;4358;42.100;25.222;2023-02-13T04:09:32;102183.34;;;1.07;100.00
8641;BME280;4358;42.100;25.222;2023-02-13T04:12:05;102169.31;;;0.96;100.00
8641;BME280;4358;42.100;25.222;2023-02-13T04:14:37;102189.41;;;1.02;100.00
8641;BME280;4358;42.100;25.222;2023-02-13T04:17:11;102189.34;;;0.96;100.00
8641;BME280;4358;42.100;25.222;2023-02-13T04:19:40;102194.56;;;0.91;100.00
8641;BME280;4358;42.100;25.222;2023-02-13T04:22:07;102178.75;;;0.77;100.00
8641;BME280;4358;42.100;25.222;2023-02-13T04:24:35;102196.25;;;0.86;100.00
8641;BME280;4358;42.100;25.222;2023-02-13T04:27:02;102198.91;;;0.91;100.00
8641;BME280;4358;42.100;25.222;2023-02-13T04:29:29;102195.44;;;0.93;100.00
8641;BME280;4358;42.100;25.222;2023-02-13T04:31:56;102186.69;;;0.90;100.00
8641;BME280;4358;42.100;25.222;2023-02-13T04:34:22;102190.22;;;0.93;100.00
8641;BME280;4358;42.100;25.222;2023-02-13T04:36:49;102187.59;;;0.92;100.00
8641;BME280;4358;42.100;25.222;2023-02-13T04:39:16;102182.28;;;0.84;100.00
8641;BME280;4358;42.100;25.222;2023-02-13T04:41:44;102190.97;;;0.78;100.00
8641;BME280;4358;42.100;25.222;2023-02-13T04:44:11;102191.78;;;0.76;100.00
8641;BME280;4358;42.100;25.222;2023-02-13T04:46:38;102197.00;;;0.73;100.00
8641;BME280;4358;42.100;25.222;2023-02-13T04:49:04;102200.41;;;0.63;100.00
8641;BME280;4358;42.100;25.222;2023-02-13T04:51:31;102193.38;;;0.57;100.00
8641;BME280;4358;42.100;25.222;2023-02-13T04:53:58;102203.75;;;0.53;100.00
8641;BME280;4358;42.100;25.222;2023-02-13T04:56:25;102202.69;;;0.37;100.00
8641;BME280;4358;42.100;25.222;2023-02-13T04:58:53;102203.50;;;0.30;100.00
8641;BME280;4358;42.100;25.222;2023-02-13T05:01:20;102197.19;;;0.10;100.00
8641;BME280;4358;42.100;25.222;2023-02-13T05:03:47;102207.78;;;-0.43;100.00
8641;BME280;4358;42.100;25.222;2023-02-13T05:06:14;102214.44;;;-0.62;100.00
8641;BME280;4358;42.100;25.222;2023-02-13T05:08:41;102211.41;;;-0.88;100.00
8641;BME280;4358;42.100;25.222;2023-02-13T05:11:08;102210.22;;;-1.08;100.00
8641;BME280;4358;42.100;25.222;2023-02-13T05:13:35;102218.75;;;-1.15;100.00
8641;BME280;4358;42.100;25.222;2023-02-13T05:16:03;102226.66;;;-1.12;100.00
8641;BME280;4358;42.100;25.222;2023-02-13T05:18:30;102223.31;;;-1.05;100.00
8641;BME280;4358;42.100;25.222;2023-02-13T05:20:57;102230.38;;;-0.98;100.00
8641;BME280;4358;42.100;25.222;2023-02-13T05:23:42;102235.09;;;-0.75;100.00
8641;BME280;4358;42.100;25.222;2023-02-13T05:26:09;102239.50;;;-0.71;100.00
8641;BME280;4358;42.100;25.222;2023-02-13T05:28:35;102257.00;;;-0.63;100.00
8641;BME280;4358;42.100;25.222;2023-02-13T05:31:21;102249.56;;;-0.93;100.00
8641;BME280;4358;42.100;25.222;2023-02-13T05:33:48;102248.50;;;-1.05;100.00
8641;BME280;4358;42.100;25.222;2023-02-13T05:36:15;102251.28;;;-0.95;100.00
8641;BME280;4358;42.100;25.222;2023-02-13T05:38:41;102247.16;;;-0.82;100.00
8641;BME280;4358;42.100;25.222;2023-02-13T05:41:08;102248.16;;;-0.72;100.00
8641;BME280;4358;42.100;25.222;2023-02-13T05:43:37;102249.22;;;-0.61;100.00
8641;BME280;4358;42.100;25.222;2023-02-13T05:46:06;102249.25;;;-0.60;100.00
8641;BME280;4358;42.100;25.222;2023-02-13T05:48:35;102258.06;;;-0.52;100.00
8641;BME280;4358;42.100;25.222;2023-02-13T05:51:02;102260.03;;;-0.38;100.00
8641;BME280;4358;42.100;25.222;2023-02-13T05:53:28;102261.00;;;-0.32;100.00
8641;BME280;4358;42.100;25.222;2023-02-13T05:55:55;102255.84;;;-0.26;100.00
8641;BME280;4358;42.100;25.222;2023-02-13T05:58:22;102245.41;;;-0.26;100.00
8641;BME280;4358;42.100;25.222;2023-02-13T06:00:49;102255.94;;;-0.20;100.00
8641;BME280;4358;42.100;25.222;2023-02-13T06:03:16;102260.44;;;-0.10;100.00
8641;BME280;4358;42.100;25.222;2023-02-13T06:05:44;102259.78;;;0.07;100.00
8641;BME280;4358;42.100;25.222;2023-02-13T06:08:11;102262.59;;;0.22;100.00
8641;BME280;4358;42.100;25.222;2023-02-13T06:10:37;102263.66;;;0.36;100.00
8641;BME280;4358;42.100;25.222;2023-02-13T06:13:04;102262.09;;;0.50;100.00
8641;BME280;4358;42.100;25.222;2023-02-13T06:15:31;102257.78;;;0.55;100.00
8641;BME280;4358;42.100;25.222;2023-02-13T06:17:58;102270.09;;;0.65;100.00
8641;BME280;4358;42.100;25.222;2023-02-13T06:20:25;102265.81;;;0.70;100.00
8641;BME280;4358;42.100;25.222;2023-02-13T06:22:53;102265.81;;;0.70;100.00
8641;BME280;4358;42.100;25.222;2023-02-13T06:25:20;102262.31;;;0.70;100.00
8641;BME280;4358;42.100;25.222;2023-02-13T06:27:47;102241.50;;;0.80;100.00
8641;BME280;4358;42.100;25.222;2023-02-13T06:30:15;102264.34;;;1.00;100.00
8641;BME280;4358;42.100;25.222;2023-02-13T06:32:42;102261.00;;;1.13;100.00
8641;BME280;4358;42.100;25.222;2023-02-13T06:35:09;102264.59;;;1.27;100.00
8641;BME280;4358;42.100;25.222;2023-02-13T06:37:35;102266.44;;;1.37;100.00
8641;BME280;4358;42.100;25.222;2023-02-13T06:40:06;102270.00;;;1.48;100.00
8641;BME280;4358;42.100;25.222;2023-02-13T06:42:34;102266.59;;;1.58;100.00
8641;BME280;4358;42.100;25.222;2023-02-13T06:45:01;102267.59;;;1.76;100.00
8641;BME280;4358;42.100;25.222;2023-02-13T06:47:27;102269.44;;;1.92;100.00
8641;BME280;4358;42.100;25.222;2023-02-13T06:49:54;102264.25;;;1.98;100.00
8641;BME280;4358;42.100;25.222;2023-02-13T06:52:21;102267.00;;;2.19;100.00
8641;BME280;4358;42.100;25.222;2023-02-13T06:54:48;102258.28;;;2.26;100.00
8641;BME280;4358;42.100;25.222;2023-02-13T06:57:16;102257.47;;;2.39;100.00
8641;BME280;4358;42.100;25.222;2023-02-13T06:59:43;102255.72;;;2.47;100.00
8641;BME280;4358;42.100;25.222;2023-02-13T07:02:10;102248.75;;;2.52;100.00
8641;BME280;4358;42.100;25.222;2023-02-13T07:04:37;102254.94;;;2.70;100.00
8641;BME280;4358;42.100;25.222;2023-02-13T07:07:04;102247.09;;;2.83;100.00
8641;BME280;4358;42.100;25.222;2023-02-13T07:09:31;102255.88;;;2.93;100.00
8641;BME280;4358;42.100;25.222;2023-02-13T07:12:01;102255.00;;;3.00;100.00
8641;BME280;4358;42.100;25.222;2023-02-13T07:14:30;102254.13;;;3.10;100.00
8641;BME280;4358;42.100;25.222;2023-02-13T07:16:57;102258.53;;;3.17;100.00
8641;BME280;4358;42.100;25.222;2023-02-13T07:19:25;102259.41;;;3.24;100.00
8641;BME280;4358;42.100;25.222;2023-02-13T07:21:51;102270.75;;;3.21;100.00
8641;BME280;4358;42.100;25.222;2023-02-13T07:24:18;102262.91;;;3.38;100.00
8641;BME280;4358;42.100;25.222;2023-02-13T07:26:45;102267.25;;;3.47;100.00
8641;BME280;4358;42.100;25.222;2023-02-13T07:29:11;102262.00;;;3.53;100.00
8641;BME280;4358;42.100;25.222;2023-02-13T07:31:40;102256.75;;;3.65;100.00
8641;BME280;4358;42.100;25.222;2023-02-13T07:34:07;102259.38;;;3.75;100.00
8641;BME280;4358;42.100;25.222;2023-02-13T07:36:34;102265.47;;;3.88;100.00
8641;BME280;4358;42.100;25.222;2023-02-13T07:39:00;102259.31;;;4.00;100.00
8641;BME280;4358;42.100;25.222;2023-02-13T07:41:27;102266.28;;;4.13;100.00
8641;BME280;4358;42.100;25.222;2023-02-13T07:43:54;102252.22;;;4.20;99.13
8641;BME280;4358;42.100;25.222;2023-02-13T07:46:21;102254.00;;;4.21;97.74
8641;BME280;4358;42.100;25.222;2023-02-13T07:48:50;102254.84;;;4.24;98.26
8641;BME280;4358;42.100;25.222;2023-02-13T07:51:17;102253.03;;;4.36;97.96
8641;BME280;4358;42.100;25.222;2023-02-13T07:53:44;102249.47;;;4.55;96.91
8641;BME280;4358;42.100;25.222;2023-02-13T07:56:11;102252.88;;;4.75;94.62
8641;BME280;4358;42.100;25.222;2023-02-13T07:58:38;102244.88;;;4.89;92.77
8641;BME280;4358;42.100;25.222;2023-02-13T08:01:06;102253.53;;;5.06;92.80
8641;BME280;4358;42.100;25.222;2023-02-13T08:03:33;102247.31;;;5.18;91.40
8641;BME280;4358;42.100;25.222;2023-02-13T08:06:02;102246.31;;;5.31;89.42
8641;BME280;4358;42.100;25.222;2023-02-13T08:08:29;102237.50;;;5.35;87.88
8641;BME280;4358;42.100;25.222;2023-02-13T08:10:56;102241.78;;;5.49;86.46
8641;BME280;4358;42.100;25.222;2023-02-13T08:13:46;102246.91;;;5.63;86.02
8641;BME280;4358;42.100;25.222;2023-02-13T08:16:13;102236.28;;;5.74;85.20
8641;BME280;4358;42.100;25.222;2023-02-13T08:18:39;102237.09;;;5.79;82.40
8641;BME280;4358;42.100;25.222;2023-02-13T08:21:08;102236.16;;;5.87;83.87
8641;BME280;4358;42.100;25.222;2023-02-13T08:23:34;102229.94;;;5.94;82.34
8641;BME280;4358;42.100;25.222;2023-02-13T08:26:01;102238.53;;;6.12;81.88
8641;BME280;4358;42.100;25.222;2023-02-13T08:28:28;102232.34;;;6.16;81.25
8641;BME280;4358;42.100;25.222;2023-02-13T08:30:55;102227.94;;;6.16;82.10
8641;BME280;4358;42.100;25.222;2023-02-13T08:33:22;102222.75;;;6.09;81.70
8641;BME280;4358;42.100;25.222;2023-02-13T08:35:49;102219.28;;;6.04;83.14
8641;BME280;4358;42.100;25.222;2023-02-13T08:38:17;102223.56;;;6.14;83.00
8641;BME280;4358;42.100;25.222;2023-02-13T08:40:43;102217.47;;;6.10;81.42
8641;BME280;4358;42.100;25.222;2023-02-13T08:43:10;102215.50;;;6.24;82.23
8641;BME280;4358;42.100;25.222;2023-02-13T08:45:37;102218.84;;;6.38;80.15
8641;BME280;4358;42.100;25.222;2023-02-13T08:48:04;102221.38;;;6.46;77.85
8641;BME280;4358;42.100;25.222;2023-02-13T08:50:31;102203.72;;;6.51;77.58
8641;BME280;4358;42.100;25.222;2023-02-13T08:52:58;102208.78;;;6.69;75.22
8641;BME280;4358;42.100;25.222;2023-02-13T08:55:27;102217.25;;;6.90;71.83
8641;BME280;4358;42.100;25.222;2023-02-13T08:57:54;102210.94;;;7.00;70.85
8641;BME280;4358;42.100;25.222;2023-02-13T09:00:21;102213.50;;;7.03;70.76
8641;BME280;4358;42.100;25.222;2023-02-13T09:02:48;102209.19;;;7.00;70.92
8641;BME280;4358;42.100;25.222;2023-02-13T09:05:14;102214.94;;;7.23;70.09
8641;BME280;4358;42.100;25.222;2023-02-13T09:07:41;102213.00;;;7.33;70.78
8641;BME280;4358;42.100;25.222;2023-02-13T09:10:09;102205.06;;;7.36;71.38
8641;BME280;4358;42.100;25.222;2023-02-13T09:12:37;102199.50;;;7.50;70.98
8641;BME280;4358;42.100;25.222;2023-02-13T09:15:04;102196.66;;;7.60;69.56
8641;BME280;4358;42.100;25.222;2023-02-13T09:17:31;102204.47;;;7.68;68.52
8641;BME280;4358;42.100;25.222;2023-02-13T09:19:58;102193.75;;;7.76;67.42
8641;BME280;4358;42.100;25.222;2023-02-13T09:22:25;102198.03;;;7.81;66.82
8641;BME280;4358;42.100;25.222;2023-02-13T09:24:52;102189.22;;;7.81;65.83
8641;BME280;4358;42.100;25.222;2023-02-13T09:27:18;102166.59;;;7.68;65.64
8641;BME280;4358;42.100;25.222;2023-02-13T09:29:46;102187.34;;;7.89;65.68
8641;BME280;4358;42.100;25.222;2023-02-13T09:32:13;102186.19;;;7.57;65.69
8641;BME280;4358;42.100;25.222;2023-02-13T09:34:41;102187.38;;;7.40;66.59
8641;BME280;4358;42.100;25.222;2023-02-13T09:37:08;102187.13;;;7.53;66.84
8641;BME280;4358;42.100;25.222;2023-02-13T09:39:34;102176.50;;;7.56;67.21
8641;BME280;4358;42.100;25.222;2023-02-13T09:42:02;102178.19;;;7.59;66.89
8641;BME280;4358;42.100;25.222;2023-02-13T09:44:35;102164.91;;;7.63;65.64
8641;BME280;4358;42.100;25.222;2023-02-13T09:47:08;102167.41;;;7.71;65.56
8641;BME280;4358;42.100;25.222;2023-02-13T09:49:40;102169.59;;;7.94;65.67
8641;BME280;4358;42.100;25.222;2023-02-13T09:52:09;102155.41;;;7.98;65.53
8641;BME280;4358;42.100;25.222;2023-02-13T09:54:36;102150.00;;;8.04;65.80
8641;BME280;4358;42.100;25.222;2023-02-13T09:57:07;102145.16;;;8.23;65.53
8641;BME280;4358;42.100;25.222;2023-02-13T09:59:52;102129.47;;;8.15;65.33
8641;BME280;4358;42.100;25.222;2023-02-13T10:02:40;102137.22;;;8.24;65.81
8641;BME280;4358;42.100;25.222;2023-02-13T10:05:22;102130.72;;;8.40;65.82
8641;BME280;4358;42.100;25.222;2023-02-13T10:07:56;102127.94;;;8.46;64.80
8641;BME280;4358;42.100;25.222;2023-02-13T10:10:30;102115.69;;;8.42;65.63
8641;BME280;4358;42.100;25.222;2023-02-13T10:13:07;102120.53;;;8.61;63.69
8641;BME280;4358;42.100;25.222;2023-02-13T10:15:39;102113.19;;;8.72;63.90
8641;BME280;4358;42.100;25.222;2023-02-13T10:18:13;102108.84;;;8.69;63.04
8641;BME280;4358;42.100;25.222;2023-02-13T10:20:44;102112.06;;;8.46;64.56
8641;BME280;4358;42.100;25.222;2023-02-13T10:23:18;102108.00;;;8.30;65.29
8641;BME280;4358;42.100;25.222;2023-02-13T10:25:51;102089.50;;;8.27;64.82
8641;BME280;4358;42.100;25.222;2023-02-13T10:28:29;102097.31;;;8.35;64.48
8641;BME280;4358;42.100;25.222;2023-02-13T10:31:03;102087.38;;;8.44;63.74
8641;BME280;4358;42.100;25.222;2023-02-13T10:33:35;102082.78;;;8.53;64.31
8641;BME280;4358;42.100;25.222;2023-02-13T10:36:11;102078.25;;;8.58;64.36
8641;BME280;4358;42.100;25.222;2023-02-13T10:38:44;102074.78;;;8.56;64.34
8641;BME280;4358;42.100;25.222;2023-02-13T10:41:23;102071.94;;;8.63;64.37
8641;BME280;4358;42.100;25.222;2023-02-13T10:44:09;102065.50;;;8.73;64.26
8641;BME280;4358;42.100;25.222;2023-02-13T10:46:47;102060.00;;;8.81;63.73
8641;BME280;4358;42.100;25.222;2023-02-13T10:49:34;102049.09;;;8.95;64.06
8641;BME280;4358;42.100;25.222;2023-02-13T10:52:10;102045.72;;;8.88;63.66
8641;BME280;4358;42.100;25.222;2023-02-13T10:55:03;102047.06;;;9.04;64.58
8641;BME280;4358;42.100;25.222;2023-02-13T10:57:38;102031.00;;;9.10;63.62
8641;BME280;4358;42.100;25.222;2023-02-13T11:00:12;102038.44;;;9.28;62.79
8641;BME280;4358;42.100;25.222;2023-02-13T11:02:43;102029.72;;;9.23;61.85
8641;BME280;4358;42.100;25.222;2023-02-13T11:05:17;102026.66;;;9.06;63.24
8641;BME280;4358;42.100;25.222;2023-02-13T11:07:45;102017.56;;;9.16;62.49
8641;BME280;4358;42.100;25.222;2023-02-13T11:10:15;102013.09;;;9.18;62.59
8641;BME280;4358;42.100;25.222;2023-02-13T11:12:43;102006.75;;;9.24;61.89
8641;BME280;4358;42.100;25.222;2023-02-13T11:15:21;102005.63;;;9.32;61.59
8641;BME280;4358;42.100;25.222;2023-02-13T11:17:49;101999.25;;;9.40;61.60
8641;BME280;4358;42.100;25.222;2023-02-13T11:20:31;102000.06;;;9.42;61.99
8641;BME280;4358;42.100;25.222;2023-02-13T11:23:16;101991.91;;;9.48;61.08
8641;BME280;4358;42.100;25.222;2023-02-13T11:25:54;101989.06;;;9.55;63.19
8641;BME280;4358;42.100;25.222;2023-02-13T11:28:22;101985.19;;;9.67;59.76
8641;BME280;4358;42.100;25.222;2023-02-13T11:30:49;101988.44;;;9.75;59.61
8641;BME280;4358;42.100;25.222;2023-02-13T11:33:22;101974.19;;;9.79;60.88
8641;BME280;4358;42.100;25.222;2023-02-13T11:36:04;101973.56;;;9.71;58.94
8641;BME280;4358;42.100;25.222;2023-02-13T11:38:31;101966.47;;;9.71;59.44
8641;BME280;4358;42.100;25.222;2023-02-13T11:41:07;101963.78;;;9.73;59.17
8641;BME280;4358;42.100;25.222;2023-02-13T11:43:36;101964.97;;;9.63;59.96
8641;BME280;4358;42.100;25.222;2023-02-13T11:46:15;101960.16;;;9.75;60.12
8641;BME280;4358;42.100;25.222;2023-02-13T11:48:55;101950.53;;;9.73;58.99
8641;BME280;4358;42.100;25.222;2023-02-13T11:51:36;101945.13;;;9.76;58.65
8641;BME280;4358;42.100;25.222;2023-02-13T11:54:04;101940.34;;;9.87;57.81
8641;BME280;4358;42.100;25.222;2023-02-13T11:56:47;101928.31;;;10.03;59.00
8641;BME280;4358;42.100;25.222;2023-02-13T11:59:14;101930.66;;;10.12;57.42
8641;BME280;4358;42.100;25.222;2023-02-13T12:01:41;101927.50;;;10.01;57.01
8641;BME280;4358;42.100;25.222;2023-02-13T12:04:13;101932.44;;;9.86;57.84
8641;BME280;4358;42.100;25.222;2023-02-13T12:06:58;101923.38;;;9.93;57.15
8641;BME280;4358;42.100;25.222;2023-02-13T12:09:25;101923.09;;;10.00;56.98
8641;BME280;4358;42.100;25.222;2023-02-13T12:11:54;101903.22;;;9.87;56.79
8641;BME280;4358;42.100;25.222;2023-02-13T12:14:25;101906.47;;;9.95;56.73
8641;BME280;4358;42.100;25.222;2023-02-13T12:16:54;101913.31;;;10.02;56.53
8641;BME280;4358;42.100;25.222;2023-02-13T12:19:27;101888.09;;;10.15;55.84
8641;BME280;4358;42.100;25.222;2023-02-13T12:22:16;101902.09;;;10.20;55.29
8641;BME280;4358;42.100;25.222;2023-02-13T12:27:42;101894.31;;;10.16;53.12
8641;BME280;4358;42.100;25.222;2023-02-13T12:30:28;101886.38;;;10.14;54.60
8641;BME280;4358;42.100;25.222;2023-02-13T12:33:08;101891.59;;;10.44;54.40
8641;BME280;4358;42.100;25.222;2023-02-13T12:35:45;101885.34;;;10.45;53.89
8641;BME280;4358;42.100;25.222;2023-02-13T12:38:29;101885.91;;;10.54;52.12
8641;BME280;4358;42.100;25.222;2023-02-13T12:41:27;101889.91;;;10.41;51.90
8641;BME280;4358;42.100;25.222;2023-02-13T12:44:15;101866.16;;;10.37;53.26
8641;BME280;4358;42.100;25.222;2023-02-13T12:46:53;101878.09;;;10.50;52.99
8641;BME280;4358;42.100;25.222;2023-02-13T12:49:56;101870.00;;;10.53;53.28
8641;BME280;4358;42.100;25.222;2023-02-13T12:52:35;101867.25;;;10.56;53.28
8641;BME280;4358;42.100;25.222;2023-02-13T12:58:11;101864.19;;;10.91;52.16
8641;BME280;4358;42.100;25.222;2023-02-13T13:00:48;101853.56;;;10.91;51.15
8641;BME280;4358;42.100;25.222;2023-02-13T13:03:34;101851.31;;;11.04;50.21
8641;BME280;4358;42.100;25.222;2023-02-13T13:06:25;101863.97;;;10.97;49.14
8641;BME280;4358;42.100;25.222;2023-02-13T13:12:23;101841.19;;;10.90;49.95
8641;BME280;4358;42.100;25.222;2023-02-13T13:14:55;101841.19;;;10.90;50.53
8641;BME280;4358;42.100;25.222;2023-02-13T13:17:40;101843.94;;;11.11;50.85
8641;BME280;4358;42.100;25.222;2023-02-13T13:20:29;101839.09;;;11.22;51.64
8641;BME280;4358;42.100;25.222;2023-02-13T13:23:04;101830.06;;;11.26;48.41
8641;BME280;4358;42.100;25.222;2023-02-13T13:25:39;101827.53;;;11.23;49.15
8641;BME280;4358;42.100;25.222;2023-02-13T13:28:15;101834.13;;;11.13;47.05
8641;BME280;4358;42.100;25.222;2023-02-13T13:30:44;101827.66;;;11.20;47.70
8641;BME280;4358;42.100;25.222;2023-02-13T13:33:14;101827.81;;;11.15;47.60
8641;BME280;4358;42.100;25.222;2023-02-13T13:35:43;101828.59;;;11.19;47.37
8641;BME280;4358;42.100;25.222;2023-02-13T13:38:17;101829.38;;;11.21;47.78